Terminal Aerodrome Forecast
Issued by NWS

Home | Current Version | Previous Version | Text Only | Print | Product List | Glossary On
Versions: 1 2 3 4 5 6 7 8 9 10 11 12 13
513
FTUS44 KTSA 031722
TAFXNA
TAF
KXNA 031722Z 0318/0418 10008KT P6SM OVC090
      TEMPO 0319/0321 5SM -RA BKN025
     FM032100 08006KT 4SM -RA BR OVC015
     FM040000 11005KT 2SM -RA BR OVC007
     FM040800 14004KT 2SM -RA BR OVC003
     FM041500 VRB03KT 3SM -RA BR BKN005=

USA.gov is the U.S. government's official web portal to all federal, state and local government web resources and services.